DLH801 ESSA-EDDF
Flight info
| Callsign | DLH801 |
|---|---|
| Flight time | N/A |
| Altitude | 38000 |
| Route | NOSL5C NOSLI N850 ABAMA DCT SONAL DCT POVEL DCT RIMET/N0448F310 T157 KOKEB/N0390F230 T157 KERAX KERAX5A |
| Aircraft | A20N/M-SDE2E3FGHIRWXY/LB1 |
Departure
| Time | 2026-05-06 07:59 |
|---|---|
| Airport | Stockholm-Arlanda Airport (ESSA) |
Arrival
| Time | N/A |
|---|---|
| Airport | Frankfurt Main Airport (EDDF) |
| Time | Latitude | Longitude | Altitude | Speed | Heading |
|---|---|---|---|---|---|
| 2026-05-06 07:43 | 59.65039 | 17.92584 | 140 ft | 0 kts | 39° |
| 2026-05-06 07:50 | 59.65037 | 17.92580 | 140 ft | 2 kts | 39° |
| 2026-05-06 07:51 | 59.65023 | 17.92561 | 140 ft | 2 kts | 31° |
| 2026-05-06 07:51 | 59.65008 | 17.92549 | 140 ft | 2 kts | 8° |
| 2026-05-06 07:51 | 59.64992 | 17.92552 | 140 ft | 2 kts | 340° |
| 2026-05-06 07:51 | 59.64977 | 17.92565 | 140 ft | 2 kts | 311° |
| 2026-05-06 07:52 | 59.64971 | 17.92594 | 140 ft | 2 kts | 277° |
| 2026-05-06 07:52 | 59.64970 | 17.92606 | 140 ft | 0 kts | 272° |
| 2026-05-06 07:53 | 59.64971 | 17.92584 | 140 ft | 8 kts | 272° |
| 2026-05-06 07:53 | 59.64969 | 17.92440 | 141 ft | 10 kts | 276° |
| 2026-05-06 07:54 | 59.64968 | 17.92342 | 141 ft | 5 kts | 268° |
| 2026-05-06 07:54 | 59.64966 | 17.92251 | 141 ft | 8 kts | 268° |
| 2026-05-06 07:54 | 59.64960 | 17.92162 | 141 ft | 2 kts | 231° |
| 2026-05-06 07:54 | 59.64934 | 17.92127 | 141 ft | 8 kts | 203° |
| 2026-05-06 07:55 | 59.64842 | 17.92089 | 141 ft | 13 kts | 185° |
| 2026-05-06 07:55 | 59.64765 | 17.92059 | 141 ft | 13 kts | 191° |
| 2026-05-06 07:55 | 59.64659 | 17.92023 | 141 ft | 16 kts | 190° |
| 2026-05-06 07:55 | 59.64550 | 17.91982 | 141 ft | 16 kts | 189° |
| 2026-05-06 07:56 | 59.64454 | 17.91947 | 141 ft | 13 kts | 191° |
| 2026-05-06 07:56 | 59.64417 | 17.91904 | 141 ft | 6 kts | 235° |
| 2026-05-06 07:56 | 59.64412 | 17.91807 | 142 ft | 8 kts | 279° |
| 2026-05-06 07:56 | 59.64421 | 17.91701 | 144 ft | 13 kts | 280° |
| 2026-05-06 07:57 | 59.64440 | 17.91600 | 147 ft | 3 kts | 334° |
| 2026-05-06 07:57 | 59.64466 | 17.91594 | 147 ft | 0 kts | 8° |
| 2026-05-06 07:58 | 59.64467 | 17.91594 | 147 ft | 2 kts | 8° |
| 2026-05-06 07:58 | 59.64659 | 17.91663 | 149 ft | 63 kts | 10° |
| 2026-05-06 07:58 | 59.65312 | 17.91895 | 147 ft | 129 kts | 11° |
| 2026-05-06 07:58 | 59.66385 | 17.92268 | 276 ft | 171 kts | 8° |
| 2026-05-06 07:59 | 59.67541 | 17.92630 | 1072 ft | 161 kts | 2° |
| 2026-05-06 07:59 | 59.68562 | 17.91959 | 1750 ft | 168 kts | 316° |
| 2026-05-06 07:59 | 59.69041 | 17.89724 | 2136 ft | 191 kts | 275° |
| 2026-05-06 07:59 | 59.69037 | 17.87013 | 2808 ft | 200 kts | 268° |
| 2026-05-06 08:00 | 59.68960 | 17.84265 | 3579 ft | 202 kts | 268° |
| 2026-05-06 08:00 | 59.68891 | 17.81475 | 4376 ft | 202 kts | 269° |
| 2026-05-06 08:00 | 59.68813 | 17.78692 | 5161 ft | 202 kts | 265° |
| 2026-05-06 08:00 | 59.68511 | 17.75970 | 5791 ft | 209 kts | 256° |
| 2026-05-06 08:01 | 59.68071 | 17.73131 | 6329 ft | 222 kts | 253° |
| 2026-05-06 08:01 | 59.67569 | 17.70077 | 6657 ft | 246 kts | 251° |
| 2026-05-06 08:01 | 59.66773 | 17.66996 | 7311 ft | 259 kts | 234° |
| 2026-05-06 08:01 | 59.65409 | 17.64600 | 8312 ft | 265 kts | 211° |
| 2026-05-06 08:02 | 59.63715 | 17.63201 | 9336 ft | 268 kts | 201° |
| 2026-05-06 08:02 | 59.61913 | 17.62090 | 10284 ft | 273 kts | 200° |
| 2026-05-06 08:02 | 59.60021 | 17.60968 | 10727 ft | 295 kts | 200° |
| 2026-05-06 08:02 | 59.57995 | 17.59754 | 11076 ft | 320 kts | 200° |
| 2026-05-06 08:03 | 59.55803 | 17.58433 | 11666 ft | 334 kts | 201° |
| 2026-05-06 08:03 | 59.53544 | 17.57068 | 12543 ft | 340 kts | 201° |
| 2026-05-06 08:03 | 59.51303 | 17.55633 | 13483 ft | 344 kts | 203° |
| 2026-05-06 08:03 | 59.49017 | 17.54083 | 14353 ft | 348 kts | 204° |
| 2026-05-06 08:04 | 59.46719 | 17.52511 | 15213 ft | 350 kts | 205° |
| 2026-05-06 08:04 | 59.44437 | 17.50947 | 16054 ft | 352 kts | 205° |
| 2026-05-06 08:04 | 59.42112 | 17.49356 | 16888 ft | 354 kts | 206° |
| 2026-05-06 08:04 | 59.39765 | 17.47752 | 17707 ft | 356 kts | 206° |
| 2026-05-06 08:05 | 59.37413 | 17.46146 | 18497 ft | 359 kts | 206° |
| 2026-05-06 08:05 | 59.35071 | 17.44552 | 19188 ft | 361 kts | 206° |
| 2026-05-06 08:05 | 59.32674 | 17.42922 | 19907 ft | 364 kts | 206° |
| 2026-05-06 08:05 | 59.30298 | 17.41309 | 20616 ft | 366 kts | 207° |
| 2026-05-06 08:06 | 59.27873 | 17.39665 | 21247 ft | 369 kts | 206° |
| 2026-05-06 08:06 | 59.25439 | 17.38017 | 21912 ft | 371 kts | 207° |
| 2026-05-06 08:06 | 59.22982 | 17.36356 | 22582 ft | 374 kts | 207° |
| 2026-05-06 08:06 | 59.20516 | 17.34692 | 23244 ft | 376 kts | 207° |
| 2026-05-06 08:07 | 59.18066 | 17.33043 | 23825 ft | 377 kts | 207° |
| 2026-05-06 08:07 | 59.15576 | 17.31370 | 24355 ft | 379 kts | 207° |
| 2026-05-06 08:07 | 59.13061 | 17.29682 | 24881 ft | 380 kts | 207° |
| 2026-05-06 08:07 | 59.10585 | 17.28016 | 25420 ft | 381 kts | 208° |
| 2026-05-06 08:08 | 59.08142 | 17.26043 | 25928 ft | 376 kts | 214° |
| 2026-05-06 08:08 | 59.05909 | 17.23471 | 26452 ft | 369 kts | 221° |
| 2026-05-06 08:08 | 59.03879 | 17.20515 | 26950 ft | 368 kts | 224° |
| 2026-05-06 08:08 | 59.01889 | 17.17381 | 27388 ft | 368 kts | 225° |
| 2026-05-06 08:09 | 58.99921 | 17.14165 | 27871 ft | 369 kts | 226° |
| 2026-05-06 08:09 | 58.97960 | 17.10928 | 28342 ft | 370 kts | 226° |
| 2026-05-06 08:09 | 58.96010 | 17.07720 | 28808 ft | 371 kts | 226° |
| 2026-05-06 08:09 | 58.94022 | 17.04477 | 29253 ft | 372 kts | 225° |
| 2026-05-06 08:10 | 58.92033 | 17.01263 | 29872 ft | 369 kts | 225° |
| 2026-05-06 08:10 | 58.90087 | 16.98145 | 30483 ft | 365 kts | 225° |